createdAt,value
2022-09-21T00:00:19.205Z, 40.26
2022-09-21T00:01:19.294Z, 40.30
2022-09-21T00:02:19.292Z, 40.30
2022-09-21T00:03:19.306Z, 40.26
2022-09-21T00:04:19.357Z, 40.20
2022-09-21T00:05:19.397Z, 40.23
2022-09-21T00:06:19.385Z, 40.22
2022-09-21T00:07:19.397Z, 40.23
2022-09-21T00:08:19.498Z, 40.22
2022-09-21T00:09:19.481Z, 40.23
2022-09-21T00:10:19.572Z, 40.23
2022-09-21T00:11:19.555Z, 40.15
2022-09-21T00:12:19.577Z, 40.11
2022-09-21T00:13:19.646Z, 40.16
2022-09-21T00:14:19.638Z, 40.17
2022-09-21T00:15:19.655Z, 40.17
2022-09-21T00:16:19.703Z, 40.19
2022-09-21T00:17:19.759Z, 40.16
2022-09-21T00:18:19.744Z, 40.16
2022-09-21T00:19:19.774Z, 40.16
2022-09-21T00:20:19.785Z, 40.15
2022-09-21T00:21:19.815Z, 40.12
2022-09-21T00:22:19.858Z, 40.13
2022-09-21T00:23:19.943Z, 40.14
2022-09-21T00:24:19.933Z, 40.13
2022-09-21T00:25:19.946Z, 40.13
2022-09-21T00:26:20.051Z, 40.11
2022-09-21T00:27:20.059Z, 40.14
2022-09-21T00:28:20.057Z, 40.12
2022-09-21T00:29:20.134Z, 40.09
2022-09-21T00:30:20.168Z, 40.06
2022-09-21T00:31:20.196Z, 40.10
2022-09-21T00:32:20.169Z, 40.08
2022-09-21T00:33:20.198Z, 40.09
2022-09-21T00:34:20.302Z, 40.07
2022-09-21T00:35:20.286Z, 40.00
2022-09-21T00:36:20.326Z, 40.03
2022-09-21T00:37:20.346Z, 39.96
2022-09-21T00:38:20.360Z, 39.93
2022-09-21T00:39:20.382Z, 39.97
2022-09-21T00:40:20.452Z, 39.93
2022-09-21T00:41:20.521Z, 39.93
2022-09-21T00:42:20.501Z, 39.95
2022-09-21T00:43:20.593Z, 39.92
2022-09-21T00:44:20.573Z, 39.95
2022-09-21T00:45:20.571Z, 39.93
2022-09-21T00:46:20.609Z, 39.93
2022-09-21T00:47:20.650Z, 39.94
2022-09-21T00:48:20.752Z, 39.93
2022-09-21T00:49:20.746Z, 39.86
2022-09-21T00:50:20.807Z, 39.92
2022-09-21T00:51:20.809Z, 39.91
2022-09-21T00:52:20.891Z, 39.90
2022-09-21T00:53:20.927Z, 39.89
2022-09-21T00:54:20.914Z, 39.80
2022-09-21T00:55:20.997Z, 39.79
2022-09-21T00:56:20.958Z, 39.79
2022-09-21T00:57:21.024Z, 39.83
2022-09-21T00:58:21.033Z, 39.81
2022-09-21T00:59:22.322Z, 39.80
2022-09-21T01:00:21.169Z, 39.77
2022-09-21T01:01:21.222Z, 39.77
2022-09-21T01:02:21.247Z, 39.76
2022-09-21T01:03:21.191Z, 39.77
2022-09-21T01:04:21.228Z, 39.78
2022-09-21T01:05:21.238Z, 39.82
2022-09-21T01:06:21.272Z, 39.80
2022-09-21T01:07:21.370Z, 39.80
2022-09-21T01:08:21.347Z, 39.81
2022-09-21T01:09:21.373Z, 39.80
2022-09-21T01:10:21.459Z, 39.82
2022-09-21T01:11:21.449Z, 39.80
2022-09-21T01:12:21.491Z, 39.77
2022-09-21T01:13:21.507Z, 39.77
2022-09-21T01:14:21.548Z, 39.79
2022-09-21T01:15:21.573Z, 39.72
2022-09-21T01:16:21.693Z, 39.68
2022-09-21T01:17:21.639Z, 39.69
2022-09-21T01:18:21.683Z, 39.70
2022-09-21T01:19:21.713Z, 39.72
2022-09-21T01:20:21.813Z, 39.69
2022-09-21T01:21:21.796Z, 39.63
2022-09-21T01:22:21.827Z, 39.69
2022-09-21T01:23:21.892Z, 39.66
2022-09-21T01:24:21.897Z, 39.60
2022-09-21T01:25:21.980Z, 39.58
2022-09-21T01:26:21.971Z, 39.59
2022-09-21T01:27:21.993Z, 39.57
2022-09-21T01:28:22.104Z, 39.63
2022-09-21T01:29:22.095Z, 39.62
2022-09-21T01:30:22.094Z, 39.62
2022-09-21T01:31:22.171Z, 39.58
2022-09-21T01:32:22.144Z, 39.54
2022-09-21T01:33:22.165Z, 39.56
2022-09-21T01:34:22.218Z, 39.52
2022-09-21T01:35:22.303Z, 39.50
2022-09-21T01:36:22.294Z, 39.55
2022-09-21T01:37:22.328Z, 39.51
2022-09-21T01:38:22.364Z, 39.51
2022-09-21T01:39:22.409Z, 39.51
2022-09-21T01:40:22.598Z, 39.53
2022-09-21T01:41:22.479Z, 39.47
2022-09-21T01:42:22.505Z, 39.48
2022-09-21T01:43:22.562Z, 39.49
2022-09-21T01:44:22.654Z, 39.45
2022-09-21T01:45:22.661Z, 39.49
2022-09-21T01:46:22.664Z, 39.45
2022-09-21T01:47:22.689Z, 39.41
2022-09-21T01:48:22.730Z, 39.43
2022-09-21T01:49:22.805Z, 39.44
2022-09-21T01:50:22.845Z, 39.46
2022-09-21T01:51:22.838Z, 39.48
2022-09-21T01:52:22.934Z, 39.46
2022-09-21T01:53:22.923Z, 39.49
2022-09-21T01:54:22.940Z, 39.49
2022-09-21T01:55:22.961Z, 39.52
2022-09-21T01:56:22.990Z, 39.50
2022-09-21T01:57:23.073Z, 39.47
2022-09-21T01:58:23.073Z, 39.47
2022-09-21T01:59:23.119Z, 39.51
2022-09-21T02:00:23.149Z, 39.53
2022-09-21T02:01:23.187Z, 39.47
2022-09-21T02:02:23.267Z, 39.46
2022-09-21T02:03:23.233Z, 39.39
2022-09-21T02:04:23.260Z, 39.41
2022-09-21T02:05:23.293Z, 39.40
2022-09-21T02:06:23.334Z, 39.39
2022-09-21T02:07:23.420Z, 39.35
2022-09-21T02:08:23.469Z, 39.35
2022-09-21T02:09:23.444Z, 39.30
2022-09-21T02:10:23.459Z, 39.32
2022-09-21T02:11:23.483Z, 39.32
2022-09-21T02:12:23.528Z, 39.28
2022-09-21T02:13:23.561Z, 39.31
2022-09-21T02:14:23.598Z, 39.30
2022-09-21T02:15:23.687Z, 39.29
2022-09-21T02:16:23.734Z, 39.31
2022-09-21T02:17:23.677Z, 39.29
2022-09-21T02:18:23.704Z, 39.28
2022-09-21T02:19:23.747Z, 39.26
2022-09-21T02:20:23.783Z, 39.22
2022-09-21T02:21:23.817Z, 39.23
2022-09-21T02:22:23.860Z, 39.19
2022-09-21T02:23:23.887Z, 39.19
2022-09-21T02:24:23.984Z, 39.23
2022-09-21T02:25:23.975Z, 39.27
2022-09-21T02:26:23.968Z, 39.23
2022-09-21T02:27:24.026Z, 39.22
2022-09-21T02:28:24.068Z, 39.28
2022-09-21T02:29:24.143Z, 39.19
2022-09-21T02:30:24.191Z, 39.16
2022-09-21T02:31:24.253Z, 39.14
2022-09-21T02:32:24.194Z, 39.12
2022-09-21T02:33:24.279Z, 39.12
2022-09-21T02:34:24.275Z, 39.11
2022-09-21T02:35:24.307Z, 39.11
2022-09-21T02:36:24.325Z, 39.15
2022-09-21T02:37:24.367Z, 39.12
2022-09-21T02:38:24.410Z, 39.16
2022-09-21T02:39:24.497Z, 39.16
2022-09-21T02:40:24.523Z, 39.10
2022-09-21T02:41:24.544Z, 39.11
2022-09-21T02:42:24.530Z, 39.11
2022-09-21T02:43:24.555Z, 39.07
2022-09-21T02:44:24.602Z, 39.10
2022-09-21T02:45:24.651Z, 39.12
2022-09-21T02:46:24.740Z, 39.09
2022-09-21T02:47:24.695Z, 39.08
2022-09-21T02:48:24.731Z, 39.07
2022-09-21T02:49:24.764Z, 39.09
2022-09-21T02:50:24.782Z, 39.07
2022-09-21T02:51:24.828Z, 39.01
2022-09-21T02:52:24.877Z, 39.03
2022-09-21T02:53:24.887Z, 39.07
2022-09-21T02:54:24.941Z, 39.03
2022-09-21T02:55:25.022Z, 39.02
2022-09-21T02:56:25.020Z, 39.02
2022-09-21T02:57:25.073Z, 38.99
2022-09-21T02:58:25.053Z, 38.94
2022-09-21T02:59:25.091Z, 39.02
2022-09-21T03:00:25.215Z, 38.99
2022-09-21T03:01:25.209Z, 38.95
2022-09-21T03:02:25.193Z, 38.95
2022-09-21T03:03:25.225Z, 38.93
2022-09-21T03:04:25.265Z, 38.98
2022-09-21T03:05:25.322Z, 39.01
2022-09-21T03:06:25.381Z, 38.92
2022-09-21T03:07:25.369Z, 38.96
2022-09-21T03:08:25.461Z, 38.95
2022-09-21T03:09:25.458Z, 38.90
2022-09-21T03:10:25.539Z, 38.92
2022-09-21T03:11:25.563Z, 38.96
2022-09-21T03:12:25.613Z, 38.95
2022-09-21T03:13:25.598Z, 38.99
2022-09-21T03:14:25.609Z, 38.91
2022-09-21T03:15:25.674Z, 38.91
2022-09-21T03:16:25.670Z, 38.93
2022-09-21T03:17:25.714Z, 38.89
2022-09-21T03:18:25.750Z, 38.84
2022-09-21T03:19:25.837Z, 38.87
2022-09-21T03:20:25.814Z, 38.88
2022-09-21T03:21:25.828Z, 38.90
2022-09-21T03:22:25.889Z, 38.86
2022-09-21T03:23:25.932Z, 38.85
2022-09-21T03:24:26.012Z, 38.88
2022-09-21T03:25:25.991Z, 38.88
2022-09-21T03:26:26.016Z, 38.92
2022-09-21T03:27:26.043Z, 38.88
2022-09-21T03:28:26.115Z, 38.87
2022-09-21T03:29:26.180Z, 38.83
2022-09-21T03:30:26.155Z, 38.81
2022-09-21T03:31:26.228Z, 38.78
2022-09-21T03:32:26.234Z, 38.78
2022-09-21T03:33:26.318Z, 38.78
2022-09-21T03:34:26.365Z, 38.72
2022-09-21T03:35:26.344Z, 38.74
2022-09-21T03:36:26.395Z, 38.73
2022-09-21T03:37:26.399Z, 38.75
2022-09-21T03:38:26.438Z, 38.77
2022-09-21T03:39:26.483Z, 38.72
2022-09-21T03:40:26.620Z, 38.75
2022-09-21T03:41:26.527Z, 38.74
2022-09-21T03:42:26.558Z, 38.77
2022-09-21T03:43:26.599Z, 38.74
2022-09-21T03:44:26.618Z, 38.72
2022-09-21T03:45:26.711Z, 38.69
2022-09-21T03:46:26.897Z, 38.69
2022-09-21T03:47:26.735Z, 38.69
2022-09-21T03:48:26.745Z, 38.69
2022-09-21T03:49:26.800Z, 38.65
2022-09-21T03:50:26.820Z, 38.66
2022-09-21T03:51:26.842Z, 38.63
2022-09-21T03:52:26.941Z, 38.66
2022-09-21T03:53:26.930Z, 38.65
2022-09-21T03:54:27.019Z, 38.59
2022-09-21T03:55:27.004Z, 38.67
2022-09-21T03:56:27.057Z, 38.69
2022-09-21T03:57:27.048Z, 38.66
2022-09-21T03:58:27.081Z, 38.68
2022-09-21T03:59:27.149Z, 38.60
2022-09-21T04:00:27.154Z, 38.59
2022-09-21T04:01:27.213Z, 38.61
2022-09-21T04:02:27.285Z, 38.61
2022-09-21T04:03:27.275Z, 38.61
2022-09-21T04:04:27.320Z, 38.63
2022-09-21T04:05:27.405Z, 38.64
2022-09-21T04:06:27.407Z, 38.62
2022-09-21T04:07:27.390Z, 38.62
2022-09-21T04:08:27.426Z, 38.60
2022-09-21T04:09:27.477Z, 38.59
2022-09-21T04:10:27.511Z, 38.57
2022-09-21T04:11:27.558Z, 38.55
2022-09-21T04:12:27.603Z, 38.55
2022-09-21T04:13:27.616Z, 38.55
2022-09-21T04:14:27.657Z, 38.54
2022-09-21T04:15:27.742Z, 38.53
2022-09-21T04:16:27.713Z, 38.51
2022-09-21T04:17:27.740Z, 38.50
2022-09-21T04:18:27.841Z, 38.44
2022-09-21T04:19:27.827Z, 38.55
2022-09-21T04:20:28.013Z, 40.51
2022-09-21T04:21:27.887Z, 46.40
2022-09-21T04:22:27.918Z, 51.24
2022-09-21T04:23:27.986Z, 56.42
2022-09-21T04:24:28.065Z, 61.89
2022-09-21T04:25:28.092Z, 66.72
2022-09-21T04:26:28.075Z, 71.63
2022-09-21T04:27:28.084Z, 79.13
2022-09-21T04:28:28.171Z, 59.77
2022-09-21T04:29:28.164Z, 57.30
2022-09-21T04:30:28.169Z, 57.59
2022-09-21T04:31:28.222Z, 59.79
2022-09-21T04:32:28.236Z, 63.81
2022-09-21T04:33:28.276Z, 68.77
2022-09-21T04:34:28.320Z, 78.55
2022-09-21T04:35:28.354Z, 67.20
2022-09-21T04:36:29.573Z, 64.12
2022-09-21T04:37:28.417Z, 63.30
2022-09-21T04:38:28.415Z, 63.90
2022-09-21T04:39:28.468Z, 64.42
2022-09-21T04:40:28.690Z, 64.57
2022-09-21T04:41:28.561Z, 64.64
2022-09-21T04:42:28.615Z, 64.77
2022-09-21T04:43:28.659Z, 64.70
2022-09-21T04:44:28.658Z, 64.68
2022-09-21T04:45:28.643Z, 64.62
2022-09-21T04:46:28.732Z, 64.58
2022-09-21T04:47:28.789Z, 64.39
2022-09-21T04:48:28.815Z, 64.26
2022-09-21T04:49:28.881Z, 64.16
2022-09-21T04:50:28.865Z, 63.99
2022-09-21T04:51:28.891Z, 63.93
2022-09-21T04:52:28.918Z, 63.83
2022-09-21T04:53:28.982Z, 63.72
2022-09-21T04:54:28.985Z, 63.62
2022-09-21T04:55:29.005Z, 63.41
2022-09-21T04:56:29.037Z, 63.23
2022-09-21T04:57:29.089Z, 63.11
2022-09-21T04:58:29.181Z, 62.88
2022-09-21T04:59:29.171Z, 62.70
2022-09-21T05:00:29.187Z, 62.52
2022-09-21T05:01:29.355Z, 62.40
2022-09-21T05:02:29.285Z, 62.33
2022-09-21T05:03:29.362Z, 62.15
2022-09-21T05:04:29.335Z, 62.01
2022-09-21T05:05:29.441Z, 61.97
2022-09-21T05:06:29.456Z, 61.90
2022-09-21T05:07:29.439Z, 61.72
2022-09-21T05:08:29.452Z, 61.63
2022-09-21T05:09:29.511Z, 61.52
2022-09-21T05:10:29.532Z, 61.44
2022-09-21T05:11:29.560Z, 61.27
2022-09-21T05:12:29.610Z, 61.12
2022-09-21T05:13:29.620Z, 61.03
2022-09-21T05:14:29.713Z, 60.85
2022-09-21T05:15:29.762Z, 60.70
2022-09-21T05:16:29.721Z, 60.60
2022-09-21T05:17:29.774Z, 60.50
2022-09-21T05:18:29.793Z, 60.34
2022-09-21T05:19:29.817Z, 60.36
2022-09-21T05:20:29.901Z, 60.36
2022-09-21T05:21:29.966Z, 60.32
2022-09-21T05:22:29.908Z, 60.31
2022-09-21T05:23:29.947Z, 60.13
2022-09-21T05:24:29.990Z, 60.11
2022-09-21T05:25:30.057Z, 60.05
2022-09-21T05:26:30.131Z, 59.98
2022-09-21T05:27:30.097Z, 59.85
2022-09-21T05:28:30.130Z, 59.70
2022-09-21T05:29:30.138Z, 59.68
2022-09-21T05:30:30.296Z, 59.61
2022-09-21T05:31:30.265Z, 59.53
2022-09-21T05:32:30.266Z, 59.37
2022-09-21T05:33:30.373Z, 59.30
2022-09-21T05:34:35.593Z, 59.26
2022-09-21T05:35:30.421Z, 59.21
2022-09-21T05:36:30.425Z, 59.14
2022-09-21T05:37:30.451Z, 59.10
2022-09-21T05:38:30.554Z, 58.98
2022-09-21T05:39:30.581Z, 58.94
2022-09-21T05:40:30.651Z, 58.90
2022-09-21T05:41:30.589Z, 58.87
2022-09-21T05:42:30.623Z, 58.74
2022-09-21T05:43:30.656Z, 58.68
2022-09-21T05:44:30.691Z, 58.64
2022-09-21T05:45:30.725Z, 58.53
2022-09-21T05:46:30.804Z, 58.45
2022-09-21T05:47:30.803Z, 58.43
2022-09-21T05:48:30.879Z, 58.33
2022-09-21T05:49:30.871Z, 58.41
2022-09-21T05:50:30.977Z, 58.30
2022-09-21T05:51:30.995Z, 58.14
2022-09-21T05:52:30.957Z, 58.21
2022-09-21T05:53:30.970Z, 58.17
2022-09-21T05:54:31.034Z, 58.08
2022-09-21T05:55:31.060Z, 58.05
2022-09-21T05:56:31.093Z, 57.93
2022-09-21T05:57:31.248Z, 57.92
2022-09-21T05:58:31.167Z, 57.82
2022-09-21T05:59:31.260Z, 57.73
2022-09-21T06:00:31.257Z, 57.71
2022-09-21T06:01:31.387Z, 57.68
2022-09-21T06:02:31.310Z, 57.60
2022-09-21T06:03:31.297Z, 57.54
2022-09-21T06:04:31.335Z, 57.38
2022-09-21T06:05:31.367Z, 57.35
2022-09-21T06:06:31.406Z, 57.28
2022-09-21T06:07:31.424Z, 57.29
2022-09-21T06:08:31.472Z, 57.33
2022-09-21T06:09:31.534Z, 57.25
2022-09-21T06:10:31.531Z, 57.17
2022-09-21T06:11:31.572Z, 57.05
2022-09-21T06:12:31.668Z, 57.04
2022-09-21T06:13:31.656Z, 56.86
2022-09-21T06:14:31.666Z, 56.90
2022-09-21T06:15:31.692Z, 56.82
2022-09-21T06:16:31.832Z, 56.85
2022-09-21T06:17:31.801Z, 56.79
2022-09-21T06:18:31.887Z, 56.68
2022-09-21T06:19:31.862Z, 56.78
2022-09-21T06:20:31.892Z, 56.79
2022-09-21T06:21:31.937Z, 56.70
2022-09-21T06:22:31.968Z, 56.70
2022-09-21T06:23:32.040Z, 56.61
2022-09-21T06:24:32.016Z, 56.55
2022-09-21T06:25:32.136Z, 56.51
2022-09-21T06:26:32.093Z, 56.47
2022-09-21T06:27:32.123Z, 56.49
2022-09-21T06:28:32.169Z, 56.43
2022-09-21T06:29:32.191Z, 56.30
2022-09-21T06:30:32.278Z, 56.27
2022-09-21T06:31:32.297Z, 56.39
2022-09-21T06:32:32.272Z, 56.42
2022-09-21T06:33:32.309Z, 56.34
2022-09-21T06:34:32.408Z, 56.23
2022-09-21T06:35:32.401Z, 56.11
2022-09-21T06:36:32.481Z, 56.09
2022-09-21T06:37:32.467Z, 56.15
2022-09-21T06:38:32.542Z, 56.07
2022-09-21T06:39:32.573Z, 55.94
2022-09-21T06:40:32.628Z, 55.91
2022-09-21T06:41:32.637Z, 55.85
2022-09-21T06:42:32.662Z, 55.90
2022-09-21T06:43:32.706Z, 55.88
2022-09-21T06:44:32.813Z, 55.81
2022-09-21T06:45:32.782Z, 55.73
2022-09-21T06:46:32.791Z, 55.66
2022-09-21T06:47:32.821Z, 55.61
2022-09-21T06:48:32.847Z, 55.55
2022-09-21T06:49:32.877Z, 55.56
2022-09-21T06:50:32.926Z, 55.55
2022-09-21T06:51:32.958Z, 55.58
2022-09-21T06:52:32.999Z, 55.52
2022-09-21T06:53:33.025Z, 55.42
2022-09-21T06:54:33.063Z, 55.37
2022-09-21T06:55:33.111Z, 55.33
2022-09-21T06:56:33.125Z, 55.19
2022-09-21T06:57:33.203Z, 55.13
2022-09-21T06:58:33.238Z, 55.21
2022-09-21T06:59:33.275Z, 55.18
2022-09-21T07:00:33.281Z, 55.27
2022-09-21T07:01:33.486Z, 55.24
2022-09-21T07:02:33.363Z, 55.23
2022-09-21T07:03:33.371Z, 55.17
2022-09-21T07:04:33.394Z, 55.14
2022-09-21T07:05:33.426Z, 55.22
2022-09-21T07:06:33.450Z, 55.18
2022-09-21T07:07:33.481Z, 55.04
2022-09-21T07:10:33.633Z, 54.98
2022-09-21T07:11:33.621Z, 54.94
2022-09-21T07:12:33.699Z, 54.99
2022-09-21T07:13:33.686Z, 54.98
2022-09-21T07:14:33.705Z, 54.95
2022-09-21T07:15:33.728Z, 54.94
2022-09-21T07:16:33.790Z, 54.86
2022-09-21T07:17:33.862Z, 54.88
2022-09-21T07:18:42.542Z, 54.82
2022-09-21T07:19:33.855Z, 54.76
2022-09-21T07:20:33.941Z, 54.72
2022-09-21T07:21:33.990Z, 54.62
2022-09-21T07:22:34.025Z, 54.55
2022-09-21T07:23:34.008Z, 54.59
2022-09-21T07:24:34.073Z, 54.64
2022-09-21T07:25:34.058Z, 54.51
2022-09-21T07:26:34.114Z, 54.56
2022-09-21T07:27:34.125Z, 54.57
2022-09-21T07:28:34.168Z, 54.46
2022-09-21T07:29:34.231Z, 54.44
2022-09-21T07:30:34.226Z, 54.38
2022-09-21T07:31:34.281Z, 54.38
2022-09-21T07:32:34.342Z, 54.45
2022-09-21T07:33:36.119Z, 54.38
2022-09-21T07:34:34.363Z, 54.26
2022-09-21T07:35:34.383Z, 54.30
2022-09-21T07:36:34.418Z, 54.31
2022-09-21T07:37:34.451Z, 54.23
2022-09-21T07:38:34.587Z, 54.21
2022-09-21T07:39:34.535Z, 54.15
2022-09-21T07:40:34.615Z, 54.12
2022-09-21T07:41:34.600Z, 54.17
2022-09-21T07:42:34.643Z, 54.13
2022-09-21T07:43:34.686Z, 54.18
2022-09-21T07:44:34.732Z, 54.14
2022-09-21T07:45:34.796Z, 54.06
2022-09-21T07:46:34.830Z, 54.08
2022-09-21T07:47:34.828Z, 53.96
2022-09-21T07:48:34.863Z, 53.94
2022-09-21T07:49:34.904Z, 53.90
2022-09-21T07:50:34.922Z, 53.89
2022-09-21T07:51:34.975Z, 53.90
2022-09-21T07:52:35.063Z, 53.89
2022-09-21T07:53:35.056Z, 53.85
2022-09-21T07:54:35.081Z, 53.73
2022-09-21T07:55:35.110Z, 53.79
2022-09-21T07:56:35.159Z, 53.72
2022-09-21T07:57:35.189Z, 53.72
2022-09-21T07:58:35.222Z, 53.72
2022-09-21T07:59:35.256Z, 53.64
2022-09-21T08:00:35.341Z, 53.66
2022-09-21T08:01:35.327Z, 53.57
2022-09-21T08:02:35.514Z, 53.48
2022-09-21T08:03:35.397Z, 53.59
2022-09-21T08:04:35.429Z, 53.57
2022-09-21T08:05:35.471Z, 53.55
2022-09-21T08:06:35.527Z, 53.52
2022-09-21T08:07:35.553Z, 53.46
2022-09-21T08:08:35.593Z, 53.40
2022-09-21T08:09:35.623Z, 53.40
2022-09-21T08:10:35.640Z, 53.42
2022-09-21T08:11:35.706Z, 53.29
2022-09-21T08:12:35.780Z, 53.33
2022-09-21T08:13:35.810Z, 53.21
2022-09-21T08:14:35.807Z, 53.23
2022-09-21T08:15:48.824Z, 53.23
2022-09-21T08:16:36.034Z, 53.21
2022-09-21T08:17:35.886Z, 53.15
2022-09-21T08:18:35.988Z, 53.22
2022-09-21T08:19:36.007Z, 53.15
2022-09-21T08:20:36.052Z, 53.06
2022-09-21T08:21:36.051Z, 53.02
2022-09-21T08:22:36.117Z, 53.06
2022-09-21T08:23:36.117Z, 53.09
2022-09-21T08:24:36.184Z, 53.05
2022-09-21T08:25:36.179Z, 52.98
2022-09-21T08:26:36.219Z, 52.97
2022-09-21T08:27:36.317Z, 52.96
2022-09-21T08:28:36.307Z, 52.88
2022-09-21T08:29:36.339Z, 52.85
2022-09-21T08:30:36.368Z, 52.90
2022-09-21T08:31:36.466Z, 52.87
2022-09-21T08:32:50.356Z, 52.82
2022-09-21T08:33:36.472Z, 52.85
2022-09-21T08:34:36.512Z, 52.84
2022-09-21T08:35:36.549Z, 52.70
2022-09-21T08:36:36.624Z, 52.83
2022-09-21T08:37:36.618Z, 52.73
2022-09-21T08:38:36.652Z, 52.75
2022-09-21T08:39:36.684Z, 52.64
2022-09-21T08:40:36.743Z, 52.58
2022-09-21T08:41:36.733Z, 52.59
2022-09-21T08:42:36.820Z, 52.58
2022-09-21T08:43:36.826Z, 52.52
2022-09-21T08:44:36.834Z, 52.55
2022-09-21T08:45:36.871Z, 52.42
2022-09-21T08:46:36.987Z, 52.43
2022-09-21T08:47:36.957Z, 52.44
2022-09-21T08:48:37.132Z, 52.44
2022-09-21T08:49:37.070Z, 52.34
2022-09-21T08:50:37.081Z, 52.36
2022-09-21T08:51:37.094Z, 52.35
2022-09-21T08:52:37.214Z, 52.31
2022-09-21T08:53:37.179Z, 52.29
2022-09-21T08:54:37.236Z, 52.25
2022-09-21T08:55:37.281Z, 52.28
2022-09-21T08:57:03.423Z, 52.26
2022-09-21T08:57:37.386Z, 52.22
2022-09-21T08:58:37.377Z, 52.16
2022-09-21T08:59:37.409Z, 52.17
2022-09-21T09:00:37.495Z, 52.24
2022-09-21T09:01:37.527Z, 52.25
2022-09-21T09:02:37.530Z, 52.15
2022-09-21T09:03:39.978Z, 52.17
2022-09-21T09:04:37.584Z, 52.14
2022-09-21T09:05:37.675Z, 52.21
2022-09-21T09:06:37.637Z, 52.16
2022-09-21T09:07:37.739Z, 52.08
2022-09-21T09:08:37.714Z, 52.07
2022-09-21T09:09:37.746Z, 52.07
2022-09-21T09:10:37.762Z, 52.05
2022-09-21T09:11:37.843Z, 51.94
2022-09-21T09:12:37.838Z, 52.02
2022-09-21T09:13:37.927Z, 51.97
2022-09-21T09:14:37.930Z, 51.98
2022-09-21T09:15:37.927Z, 51.95
2022-09-21T09:16:38.091Z, 51.88
2022-09-21T09:17:38.072Z, 51.86
2022-09-21T09:18:42.739Z, 51.91
2022-09-21T09:19:38.099Z, 51.84
2022-09-21T09:20:38.118Z, 51.82
2022-09-21T09:21:38.200Z, 51.83
2022-09-21T09:22:38.201Z, 51.76
2022-09-21T09:23:38.256Z, 51.65
2022-09-21T09:24:38.320Z, 51.69
2022-09-21T09:25:38.360Z, 51.70
2022-09-21T09:26:38.395Z, 51.64
2022-09-21T09:27:38.423Z, 51.61
2022-09-21T09:28:38.430Z, 51.63
2022-09-21T09:29:38.428Z, 51.64
2022-09-21T09:30:38.457Z, 51.63
2022-09-21T09:31:38.673Z, 51.58
2022-09-21T09:32:38.555Z, 51.55
2022-09-21T09:33:38.655Z, 51.58
2022-09-21T09:34:38.642Z, 51.56
2022-09-21T09:35:38.647Z, 51.50
2022-09-21T09:36:56.839Z, 51.37
2022-09-21T09:37:38.694Z, 51.43
2022-09-21T09:38:38.732Z, 51.44
2022-09-21T09:39:38.784Z, 51.33
2022-09-21T09:40:38.836Z, 51.41
2022-09-21T09:41:38.843Z, 51.41
2022-09-21T09:42:38.872Z, 51.45
2022-09-21T09:43:38.893Z, 51.36
2022-09-21T09:44:38.959Z, 51.33
2022-09-21T09:45:39.038Z, 51.25
2022-09-21T09:46:39.140Z, 51.27
2022-09-21T09:47:39.105Z, 51.26
2022-09-21T09:48:39.180Z, 51.39
2022-09-21T09:49:39.099Z, 51.25
2022-09-21T09:50:39.121Z, 51.22
2022-09-21T09:51:39.165Z, 51.19
2022-09-21T09:52:39.188Z, 51.15
2022-09-21T09:53:39.269Z, 51.08
2022-09-21T09:54:39.249Z, 51.01
2022-09-21T09:55:39.348Z, 51.05
2022-09-21T09:56:39.326Z, 51.11
2022-09-21T09:57:39.430Z, 51.04
2022-09-21T09:58:39.425Z, 51.06
2022-09-21T09:59:39.522Z, 51.05
2022-09-21T10:00:39.498Z, 51.05
2022-09-21T10:01:39.615Z, 50.94
2022-09-21T10:02:39.553Z, 50.98
2022-09-21T10:03:39.644Z, 50.95
2022-09-21T10:04:39.665Z, 50.95
2022-09-21T10:05:39.639Z, 50.80
2022-09-21T10:06:45.137Z, 50.82
2022-09-21T10:07:39.712Z, 50.84
2022-09-21T10:08:39.818Z, 50.76
2022-09-21T10:09:39.875Z, 50.77
2022-09-21T10:10:39.866Z, 50.74
2022-09-21T10:11:39.864Z, 50.66
2022-09-21T10:12:39.879Z, 50.72
2022-09-21T10:13:39.924Z, 50.74
2022-09-21T10:14:39.927Z, 50.69
2022-09-21T10:15:39.999Z, 50.75
2022-09-21T10:16:39.996Z, 50.74
2022-09-21T10:17:40.020Z, 50.69
2022-09-21T10:18:40.077Z, 50.69
2022-09-21T10:19:40.174Z, 50.68
2022-09-21T10:20:40.143Z, 50.64
2022-09-21T10:21:40.155Z, 50.59
2022-09-21T10:22:40.233Z, 50.56
2022-09-21T10:23:40.283Z, 50.49
2022-09-21T10:24:40.284Z, 50.46
2022-09-21T10:25:40.462Z, 50.45
2022-09-21T10:26:40.359Z, 50.46
2022-09-21T10:27:40.366Z, 50.42
2022-09-21T10:28:40.391Z, 50.47
2022-09-21T10:29:40.507Z, 50.44
2022-09-21T10:30:40.508Z, 50.48
2022-09-21T10:31:40.563Z, 50.38
2022-09-21T10:32:40.607Z, 50.37
2022-09-21T10:33:40.576Z, 50.43
2022-09-21T10:34:40.593Z, 50.43
2022-09-21T10:35:40.623Z, 50.39
2022-09-21T10:36:40.635Z, 50.31
2022-09-21T10:37:40.681Z, 50.29
2022-09-21T10:38:40.714Z, 50.27
2022-09-21T10:39:40.752Z, 50.22
2022-09-21T10:40:40.858Z, 50.13
2022-09-21T10:41:40.862Z, 50.19
2022-09-21T10:42:40.913Z, 50.27
2022-09-21T10:43:43.608Z, 50.14
2022-09-21T10:44:40.909Z, 50.15
2022-09-21T10:45:40.989Z, 50.18
2022-09-21T10:46:41.317Z, 50.27
2022-09-21T10:47:41.074Z, 50.21
2022-09-21T10:48:41.093Z, 50.13
2022-09-21T10:49:41.121Z, 50.10
2022-09-21T10:50:41.102Z, 50.15
2022-09-21T10:51:41.126Z, 50.10
2022-09-21T10:52:41.166Z, 50.05
2022-09-21T10:53:41.197Z, 50.12
2022-09-21T10:54:41.231Z, 50.02
2022-09-21T10:55:52.621Z, 50.03
2022-09-21T10:56:41.300Z, 50.01
2022-09-21T10:57:41.379Z, 49.96
2022-09-21T10:58:41.405Z, 49.91
2022-09-21T10:59:41.371Z, 49.96
2022-09-21T11:00:41.451Z, 49.94
2022-09-21T11:01:41.478Z, 49.90
2022-09-21T11:02:41.518Z, 49.84
2022-09-21T11:03:41.490Z, 49.82
2022-09-21T11:04:41.538Z, 49.88
2022-09-21T11:05:41.584Z, 49.87
2022-09-21T11:06:41.701Z, 49.75
2022-09-21T11:07:41.668Z, 49.71
2022-09-21T11:08:41.721Z, 49.70
2022-09-21T11:09:41.806Z, 49.65
2022-09-21T11:10:41.787Z, 49.70
2022-09-21T11:11:41.854Z, 49.70
2022-09-21T11:12:41.891Z, 49.61
2022-09-21T11:13:41.889Z, 49.64
2022-09-21T11:14:41.969Z, 49.57
2022-09-21T11:15:42.165Z, 49.56
2022-09-21T11:16:42.001Z, 49.63
2022-09-21T11:17:42.112Z, 49.53
2022-09-21T11:18:42.057Z, 49.46
2022-09-21T11:19:42.061Z, 49.57
2022-09-21T11:20:42.102Z, 49.52
2022-09-21T11:21:42.133Z, 49.50
2022-09-21T11:22:42.169Z, 49.50
2022-09-21T11:23:42.188Z, 49.54
2022-09-21T11:24:42.226Z, 49.47
2022-09-21T11:25:42.257Z, 49.49
2022-09-21T11:27:42.308Z, 49.44
2022-09-21T11:28:42.364Z, 49.37
2022-09-21T11:29:42.397Z, 49.39
2022-09-21T11:30:42.529Z, 49.38
2022-09-21T11:31:42.458Z, 49.33
2022-09-21T11:32:42.499Z, 49.22
2022-09-21T11:33:42.586Z, 49.27
2022-09-21T11:34:42.584Z, 49.17
2022-09-21T11:35:42.643Z, 49.21
2022-09-21T11:36:42.630Z, 49.23
2022-09-21T11:37:42.673Z, 49.29
2022-09-21T11:38:43.494Z, 49.24
2022-09-21T11:39:42.715Z, 49.18
2022-09-21T11:40:42.864Z, 49.21
2022-09-21T11:41:42.785Z, 49.24
2022-09-21T11:42:42.805Z, 49.20
2022-09-21T11:43:42.900Z, 49.12
2022-09-21T11:44:42.889Z, 49.17
2022-09-21T11:45:46.093Z, 49.17
2022-09-21T11:46:42.967Z, 49.12
2022-09-21T11:47:42.997Z, 49.12
2022-09-21T11:48:43.089Z, 49.13
2022-09-21T11:49:43.069Z, 49.08
2022-09-21T11:50:43.164Z, 49.10
2022-09-21T11:51:43.202Z, 49.03
2022-09-21T11:52:43.190Z, 48.99
2022-09-21T11:53:43.226Z, 49.02
2022-09-21T11:54:43.241Z, 49.02
2022-09-21T11:55:43.343Z, 48.95
2022-09-21T11:56:43.319Z, 48.91
2022-09-21T11:57:43.344Z, 48.89
2022-09-21T11:58:43.391Z, 48.89
2022-09-21T11:59:43.386Z, 48.87
2022-09-21T12:00:43.422Z, 48.84
2022-09-21T12:01:43.522Z, 48.79
2022-09-21T12:02:43.708Z, 48.79
2022-09-21T12:03:43.500Z, 48.82
2022-09-21T12:04:43.532Z, 48.77
2022-09-21T12:05:43.631Z, 48.81
2022-09-21T12:06:43.619Z, 48.74
2022-09-21T12:07:43.661Z, 48.72
2022-09-21T12:08:43.748Z, 48.71
2022-09-21T12:09:43.726Z, 48.69
2022-09-21T12:10:43.800Z, 48.71
2022-09-21T12:11:43.853Z, 48.71
2022-09-21T12:12:43.872Z, 48.66
2022-09-21T12:13:43.935Z, 48.67
2022-09-21T12:14:43.919Z, 48.59
2022-09-21T12:15:43.952Z, 48.55
2022-09-21T12:16:44.081Z, 48.55
2022-09-21T12:17:43.989Z, 48.47
2022-09-21T12:18:46.063Z, 48.43
2022-09-21T12:19:44.066Z, 48.49
2022-09-21T12:20:44.153Z, 48.48
2022-09-21T12:21:44.152Z, 48.41
2022-09-21T12:22:44.177Z, 48.37
2022-09-21T12:23:44.292Z, 48.36
2022-09-21T12:24:44.313Z, 48.32
2022-09-21T12:25:44.309Z, 48.25
2022-09-21T12:26:44.328Z, 48.28
2022-09-21T12:27:44.348Z, 48.26
2022-09-21T12:28:44.471Z, 48.29
2022-09-21T12:29:44.457Z, 48.29
2022-09-21T12:30:44.604Z, 48.33
2022-09-21T12:31:44.506Z, 48.28